KMBL/MBL METAR and TAF weather

Enter ICAO airport designator
Station Type Date Time Source
KMBL METAR 2022/12/04 09:56 UTC NOAA

KMBL 040956Z AUTO 24006KT 10SM CLR M03/M08 A3018 RMK AO2 SLP229 T10331078 FZRANO


Station Type Date Time Source
KMBL Decoded METAR 2022/12/04 09:56 UTC NOAA

Manistee, Manistee County-Blacker Airport, MI, United States (KMBL) 44-16N 086-15W
Dec 04, 2022 - 04:56 AM EST / 2022.12.04 0956 UTC
Wind: from the WSW (240 degrees) at 7 MPH (6 KT):0
Visibility: 10 mile(s):0
Sky conditions: clear
Temperature: 26.1 F (-3.3 C)
Windchill: 17 F (-8 C):1
Dew Point: 18.0 F (-7.8 C)
Relative Humidity: 70%
Pressure (altimeter): 30.18 in. Hg (1022 hPa)
ob: KMBL 040956Z AUTO 24006KT 10SM CLR M03/M08 A3018 RMK AO2 SLP229 T10331078 FZRANO
cycle: 10

Station Type Date Time Source
KMBL TAF 2022/12/04 09:22 UTC NOAA

TAF
AMD KMBL 040922Z 0409/0506 26012G17KT P6SM OVC024
FM041100 23012G22KT P6SM FEW200
FM041400 24014G25KT P6SM FEW210
FM041600 25015G25KT P6SM FEW220

Example: see airport list